Time;durP1;ratioP1;P1;durP2;ratioP2;P2;SDS_P1;SDS_P2;PMS_P1;PMS_P2;Temp;Humidity;BMP_temperature;BMP_pressure;BME280_temperature;BME280_humidity;BME280_pressure;Samples;Min_cycle;Max_cycle;Signal;HPM_P1;HPM_P2
2021/01/17 00:00:12;;;;;;;28.40;15.73;;;4.40;99.90;;;;;;5071978;28;20028;-79
2021/01/17 00:02:39;;;;;;;29.80;15.65;;;4.40;99.90;;;;;;5069153;28;20067;-80
2021/01/17 00:05:09;;;;;;;28.02;15.65;;;4.40;99.90;;;;;;5071687;28;20013;-80
2021/01/17 00:07:35;;;;;;;25.98;15.43;;;4.30;99.90;;;;;;5071679;28;20155;-80
2021/01/17 00:10:01;;;;;;;26.90;16.45;;;4.30;99.90;;;;;;5071935;28;20099;-80
2021/01/17 00:12:26;;;;;;;29.48;16.33;;;4.30;99.90;;;;;;5071649;28;20029;-80
2021/01/17 00:14:52;;;;;;;31.98;18.85;;;4.30;99.90;;;;;;5071863;28;20077;-80
2021/01/17 00:17:18;;;;;;;29.88;16.38;;;4.40;99.90;;;;;;5070709;28;20025;-80
2021/01/17 00:19:43;;;;;;;29.02;16.15;;;4.40;99.90;;;;;;5070586;28;20029;-79
2021/01/17 00:22:09;;;;;;;36.42;18.77;;;4.40;99.90;;;;;;5072497;28;20397;-80
2021/01/17 00:24:34;;;;;;;33.40;17.00;;;4.40;99.90;;;;;;5070927;28;20036;-78
2021/01/17 00:27:00;;;;;;;40.60;20.58;;;4.40;99.90;;;;;;5071839;28;20154;-80
2021/01/17 00:29:26;;;;;;;30.63;16.52;;;4.40;99.90;;;;;;5071277;28;20135;-79
2021/01/17 00:31:52;;;;;;;31.08;16.60;;;4.40;99.90;;;;;;5069981;28;20108;-80
2021/01/17 00:34:18;;;;;;;26.40;14.65;;;4.40;99.90;;;;;;5071698;28;20095;-79
2021/01/17 00:36:44;;;;;;;29.77;15.85;;;4.40;99.90;;;;;;5071550;28;20017;-80
2021/01/17 00:39:10;;;;;;;28.58;15.25;;;4.40;99.90;;;;;;5071103;28;20035;-80
2021/01/17 00:41:36;;;;;;;29.80;15.60;;;4.50;99.90;;;;;;5073269;28;20052;-79
2021/01/17 00:44:03;;;;;;;27.27;16.10;;;4.50;99.90;;;;;;5074595;28;20035;-79
2021/01/17 00:46:39;;;;;;;30.60;15.75;;;4.50;99.90;;;;;;5077568;28;20029;-79
2021/01/17 00:49:05;;;;;;;24.80;15.20;;;4.60;99.90;;;;;;5073767;28;20047;-80
2021/01/17 00:51:42;;;;;;;32.55;16.15;;;4.50;99.90;;;;;;5073995;28;20469;-80
2021/01/17 00:54:08;;;;;;;26.42;14.45;;;4.60;99.90;;;;;;5073851;28;20031;-79
2021/01/17 00:56:35;;;;;;;25.73;15.32;;;4.60;99.90;;;;;;5074392;28;20017;-80
2021/01/17 00:59:00;;;;;;;32.42;17.67;;;4.60;99.90;;;;;;5074801;28;20025;-80
2021/01/17 01:01:26;;;;;;;28.45;15.55;;;4.60;99.90;;;;;;5073505;28;20067;-78
2021/01/17 01:03:52;;;;;;;22.40;14.45;;;4.60;99.90;;;;;;5073567;28;20028;-78
2021/01/17 01:06:18;;;;;;;25.92;15.50;;;4.60;99.90;;;;;;5073575;28;20469;-79
2021/01/17 01:08:45;;;;;;;28.40;15.32;;;4.60;99.90;;;;;;5075084;28;20392;-79
2021/01/17 01:11:17;;;;;;;23.60;14.18;;;4.70;99.90;;;;;;5074756;28;20055;-80
2021/01/17 01:13:43;;;;;;;24.63;14.93;;;4.70;99.90;;;;;;5074926;28;20132;-80
2021/01/17 01:16:17;;;;;;;37.33;17.65;;;4.70;99.90;;;;;;5073548;28;20100;-79
2021/01/17 01:18:43;;;;;;;32.38;17.65;;;4.70;99.90;;;;;;5071185;28;20074;-80
2021/01/17 01:21:09;;;;;;;27.17;16.70;;;4.80;99.90;;;;;;5073444;28;20483;-78
2021/01/17 01:23:35;;;;;;;26.90;15.65;;;4.70;99.90;;;;;;5073153;28;20079;-78
2021/01/17 01:26:02;;;;;;;23.35;15.27;;;4.80;99.90;;;;;;5074449;28;20013;-79
2021/01/17 01:28:28;;;;;;;27.42;15.90;;;4.80;99.90;;;;;;5073894;28;20039;-80
2021/01/17 01:30:54;;;;;;;29.58;15.85;;;4.80;99.90;;;;;;5074418;28;20099;-79
2021/01/17 01:33:22;;;;;;;29.00;14.82;;;4.80;99.90;;;;;;5074503;28;20460;-80
2021/01/17 01:35:47;;;;;;;22.70;14.48;;;4.70;99.90;;;;;;5074198;28;20454;-80
2021/01/17 01:38:14;;;;;;;23.90;14.35;;;4.70;99.90;;;;;;5073971;28;20024;-80
2021/01/17 01:40:40;;;;;;;27.70;15.80;;;4.70;99.90;;;;;;5073127;28;20074;-80
2021/01/17 01:43:06;;;;;;;22.90;13.27;;;4.70;99.90;;;;;;5073984;28;20107;-80
2021/01/17 01:45:31;;;;;;;25.50;13.40;;;4.60;99.90;;;;;;5073150;28;20499;-80
2021/01/17 01:47:57;;;;;;;25.52;14.23;;;4.70;99.90;;;;;;5073710;28;20036;-80
2021/01/17 01:50:23;;;;;;;19.60;11.98;;;4.60;99.90;;;;;;5073680;28;20036;-80
2021/01/17 01:52:50;;;;;;;25.15;12.52;;;4.60;99.90;;;;;;5072661;28;20024;-80
2021/01/17 01:55:16;;;;;;;22.45;12.25;;;4.50;99.90;;;;;;5072910;28;20016;-80
2021/01/17 01:57:42;;;;;;;22.60;13.25;;;4.40;99.90;;;;;;5073475;28;20021;-80
2021/01/17 02:00:08;;;;;;;22.23;12.52;;;4.40;99.90;;;;;;5073874;28;20039;-80
2021/01/17 02:02:42;;;;;;;18.50;11.93;;;4.40;99.90;;;;;;5073494;28;20053;-79
2021/01/17 02:05:08;;;;;;;29.85;13.63;;;4.40;99.90;;;;;;5073114;28;20021;-80
2021/01/17 02:07:59;;;;;;;25.33;12.52;;;4.40;99.90;;;;;;5071457;28;20028;-80
2021/01/17 02:10:25;;;;;;;23.05;13.40;;;4.40;99.90;;;;;;5073701;28;20029;-79
2021/01/17 02:13:06;;;;;;;18.75;11.57;;;4.40;99.90;;;;;;5072385;28;20040;-80
2021/01/17 02:15:33;;;;;;;23.23;13.10;;;4.40;99.90;;;;;;5062359;28;20051;-80
2021/01/17 02:18:04;;;;;;;20.52;12.32;;;4.40;99.90;;;;;;5072990;28;20031;-80
2021/01/17 02:20:32;;;;;;;22.97;12.83;;;4.40;99.90;;;;;;5073043;28;20127;-80
2021/01/17 02:23:00;;;;;;;20.35;11.88;;;4.40;99.90;;;;;;5073228;28;20040;-78
2021/01/17 02:25:31;;;;;;;21.10;12.35;;;4.50;99.90;;;;;;5072294;28;20056;-78
2021/01/17 02:28:00;;;;;;;17.75;12.10;;;4.50;99.90;;;;;;5070233;28;20047;-80
2021/01/17 02:30:27;;;;;;;27.58;13.20;;;4.50;99.90;;;;;;5072125;28;20369;-79
2021/01/17 02:33:13;;;;;;;20.25;12.48;;;4.60;99.90;;;;;;5072344;28;20035;-80
2021/01/17 02:35:40;;;;;;;24.02;14.00;;;4.60;99.90;;;;;;5073090;28;20020;-79
2021/01/17 02:38:42;;;;;;;21.77;12.95;;;4.60;99.90;;;;;;5073779;28;20028;-80
2021/01/17 02:41:29;;;;;;;25.50;13.88;;;4.60;99.90;;;;;;5072994;28;20461;-80
2021/01/17 02:43:55;;;;;;;23.35;12.80;;;4.70;99.90;;;;;;5073086;28;20028;-78
2021/01/17 02:46:20;;;;;;;22.98;13.68;;;4.70;99.90;;;;;;5072707;28;20074;-78
2021/01/17 02:48:46;;;;;;;26.98;15.27;;;4.70;99.90;;;;;;5072697;28;20040;-79
2021/01/17 02:51:12;;;;;;;24.55;15.93;;;4.70;99.90;;;;;;5072039;28;20027;-78
2021/01/17 02:53:45;;;;;;;29.95;18.65;;;4.80;99.90;;;;;;5069934;28;20025;-78
2021/01/17 02:56:17;;;;;;;22.30;15.20;;;4.80;99.90;;;;;;5070598;28;20031;-78
2021/01/17 02:58:49;;;;;;;25.27;15.18;;;4.80;99.90;;;;;;5063249;28;20089;-80
2021/01/17 03:01:23;;;;;;;19.85;13.13;;;4.90;99.90;;;;;;5071193;28;20036;-78
2021/01/17 03:03:53;;;;;;;21.23;11.40;;;4.90;99.90;;;;;;5072076;28;20369;-77
2021/01/17 03:06:20;;;;;;;21.00;11.80;;;4.90;99.90;;;;;;5077259;28;20456;-79
2021/01/17 03:08:45;;;;;;;19.75;12.50;;;5.00;99.90;;;;;;5080433;28;20036;-78
2021/01/17 03:11:11;;;;;;;18.50;13.32;;;5.00;99.90;;;;;;5071455;28;20357;-79
2021/01/17 03:13:39;;;;;;;21.17;13.77;;;5.00;99.90;;;;;;5071005;28;20035;-78
2021/01/17 03:16:05;;;;;;;20.67;15.13;;;5.00;99.90;;;;;;5086204;28;20031;-78
2021/01/17 03:18:31;;;;;;;23.25;13.57;;;5.00;99.90;;;;;;5071870;28;20021;-79
2021/01/17 03:20:57;;;;;;;24.25;12.32;;;5.00;99.90;;;;;;5071786;28;20032;-79
2021/01/17 03:23:23;;;;;;;20.42;12.27;;;5.00;99.90;;;;;;5071295;28;20035;-78
2021/01/17 03:25:48;;;;;;;19.70;11.13;;;4.90;99.90;;;;;;5071717;28;20029;-78
2021/01/17 03:28:14;;;;;;;20.13;11.93;;;4.70;99.90;;;;;;5071819;28;20060;-79
2021/01/17 03:30:39;;;;;;;22.52;11.52;;;4.70;99.90;;;;;;5071101;28;20024;-79
2021/01/17 03:33:05;;;;;;;25.38;11.65;;;4.70;99.90;;;;;;5071910;28;20099;-80
2021/01/17 03:35:31;;;;;;;17.60;11.23;;;4.70;99.90;;;;;;5070929;28;20095;-79
2021/01/17 03:37:57;;;;;;;19.27;11.20;;;4.70;99.90;;;;;;5074159;28;20086;-79
2021/01/17 03:40:23;;;;;;;22.25;11.68;;;4.70;99.90;;;;;;5075580;28;20113;-80
2021/01/17 03:42:49;;;;;;;20.50;11.43;;;4.70;99.90;;;;;;5079528;28;20476;-79
2021/01/17 03:45:15;;;;;;;20.60;11.63;;;4.70;99.90;;;;;;5094110;28;20039;-78
2021/01/17 03:47:40;;;;;;;18.52;11.32;;;4.70;99.90;;;;;;5089331;28;20028;-79
2021/01/17 03:50:06;;;;;;;18.40;11.73;;;4.60;99.90;;;;;;5084000;28;20020;-78
2021/01/17 03:52:32;;;;;;;21.83;12.73;;;4.70;99.90;;;;;;5085896;28;20016;-79
2021/01/17 03:54:58;;;;;;;16.25;11.43;;;4.70;99.90;;;;;;5091601;28;20024;-78
2021/01/17 03:57:23;;;;;;;19.33;11.32;;;4.70;99.90;;;;;;5085936;28;20034;-78
2021/01/17 03:59:49;;;;;;;20.98;11.98;;;4.70;99.90;;;;;;5085983;28;20047;-79
2021/01/17 04:02:15;;;;;;;21.75;12.95;;;4.70;99.90;;;;;;5085557;28;20079;-78
2021/01/17 04:04:40;;;;;;;21.15;13.02;;;4.70;99.90;;;;;;5087677;28;20021;-79
2021/01/17 04:07:06;;;;;;;22.75;13.18;;;4.70;99.90;;;;;;5080533;28;20116;-78
2021/01/17 04:09:32;;;;;;;20.67;13.48;;;4.70;99.90;;;;;;5084802;28;20060;-78
2021/01/17 04:11:57;;;;;;;20.20;12.75;;;4.70;99.90;;;;;;5086549;28;20089;-79
2021/01/17 04:14:23;;;;;;;22.40;13.15;;;4.80;99.90;;;;;;5086888;28;20042;-79
2021/01/17 04:16:50;;;;;;;18.75;12.27;;;4.80;99.90;;;;;;5087865;28;20021;-79
2021/01/17 04:19:16;;;;;;;20.55;12.55;;;4.80;99.90;;;;;;5088985;28;20013;-78
2021/01/17 04:21:42;;;;;;;23.23;12.18;;;4.80;99.90;;;;;;5088257;28;20481;-79
2021/01/17 04:24:07;;;;;;;18.20;12.23;;;4.80;99.90;;;;;;5083712;28;20020;-79
2021/01/17 04:26:33;;;;;;;23.02;13.07;;;4.70;99.90;;;;;;5076604;28;20028;-80
2021/01/17 04:28:59;;;;;;;18.05;11.85;;;4.70;99.90;;;;;;5077313;28;20036;-79
2021/01/17 04:31:24;;;;;;;21.98;12.07;;;4.70;99.90;;;;;;5076061;28;20393;-79
2021/01/17 04:33:50;;;;;;;21.50;11.98;;;4.70;99.90;;;;;;5075848;28;20029;-79
2021/01/17 04:36:16;;;;;;;18.33;11.23;;;4.60;99.90;;;;;;5073896;28;20028;-79
2021/01/17 04:38:41;;;;;;;19.08;11.38;;;4.60;99.90;;;;;;5075588;28;20036;-79
2021/01/17 04:41:12;;;;;;;22.83;13.20;;;4.60;99.90;;;;;;5074662;28;20023;-78
2021/01/17 04:43:56;;;;;;;20.08;12.55;;;4.60;99.90;;;;;;5073146;28;20170;-79
2021/01/17 04:46:25;;;;;;;21.77;11.98;;;4.60;99.90;;;;;;5075043;28;20366;-79
2021/01/17 04:48:57;;;;;;;23.30;12.68;;;4.60;99.90;;;;;;5066687;28;20117;-78
2021/01/17 04:51:27;;;;;;;22.25;12.18;;;4.60;99.90;;;;;;5073300;28;20066;-79
2021/01/17 04:53:53;;;;;;;23.17;13.10;;;4.60;99.90;;;;;;5073600;28;20039;-78
2021/01/17 04:56:35;;;;;;;18.38;12.32;;;4.60;99.90;;;;;;5074136;28;20494;-79
2021/01/17 04:59:13;;;;;;;18.20;11.65;;;4.60;99.90;;;;;;5073338;28;20052;-80
2021/01/17 05:01:48;;;;;;;19.75;12.10;;;4.50;99.90;;;;;;5074366;28;20049;-79
2021/01/17 05:04:48;;;;;;;20.40;11.98;;;4.50;99.90;;;;;;5073803;28;20020;-78
2021/01/17 05:07:22;;;;;;;17.33;11.52;;;4.50;99.90;;;;;;5073846;28;20028;-79
2021/01/17 05:10:01;;;;;;;22.23;12.27;;;4.50;99.90;;;;;;5061138;28;20079;-78
2021/01/17 05:12:36;;;;;;;18.60;11.77;;;4.50;99.90;;;;;;5073371;28;20016;-78
2021/01/17 05:15:03;;;;;;;19.20;11.98;;;4.50;99.90;;;;;;5072418;28;20028;-79
2021/01/17 05:17:40;;;;;;;21.27;11.45;;;4.50;99.90;;;;;;5073727;28;20055;-78
2021/01/17 05:20:07;;;;;;;17.27;11.68;;;4.50;99.90;;;;;;5074503;28;20028;-78
2021/01/17 05:22:34;;;;;;;20.90;11.95;;;4.50;99.90;;;;;;5073634;28;20033;-79
2021/01/17 05:25:03;;;;;;;17.70;11.20;;;4.50;99.90;;;;;;5060173;28;20028;-79
2021/01/17 05:27:29;;;;;;;20.85;11.00;;;4.50;99.90;;;;;;5073330;28;20084;-79
2021/01/17 05:29:54;;;;;;;15.82;10.30;;;4.50;99.90;;;;;;5074850;28;20039;-79
2021/01/17 05:32:22;;;;;;;21.50;11.32;;;4.50;99.90;;;;;;5076719;28;20013;-79
2021/01/17 05:34:50;;;;;;;18.38;10.80;;;4.50;99.90;;;;;;5073166;28;20033;-78
2021/01/17 05:37:16;;;;;;;19.30;10.93;;;4.50;99.90;;;;;;5072869;28;20057;-79
2021/01/17 05:40:02;;;;;;;17.10;10.27;;;4.50;99.90;;;;;;5073923;28;20095;-78
2021/01/17 05:42:41;;;;;;;15.80;10.20;;;4.50;99.90;;;;;;5060828;28;20024;-79
2021/01/17 05:45:25;;;;;;;17.98;10.45;;;4.50;99.90;;;;;;5071698;28;20569;-78
2021/01/17 05:47:51;;;;;;;15.57;9.77;;;4.50;99.90;;;;;;5073466;28;20041;-79
2021/01/17 05:50:16;;;;;;;22.77;10.65;;;4.50;99.90;;;;;;5072217;28;20469;-80
2021/01/17 05:52:42;;;;;;;15.38;10.15;;;4.50;99.90;;;;;;5071212;28;20025;-80
2021/01/17 05:55:15;;;;;;;19.00;10.10;;;4.50;99.90;;;;;;5071708;28;20523;-78
2021/01/17 05:57:40;;;;;;;18.63;10.48;;;4.50;99.90;;;;;;5072907;28;20682;-78
2021/01/17 06:00:06;;;;;;;15.30;9.50;;;4.60;99.90;;;;;;5072851;28;20028;-78
2021/01/17 06:02:33;;;;;;;14.82;9.85;;;4.60;99.90;;;;;;5071269;28;20047;-78
2021/01/17 06:05:02;;;;;;;17.40;10.00;;;4.60;99.90;;;;;;5072855;28;20028;-80
2021/01/17 06:07:30;;;;;;;15.30;9.93;;;4.50;99.90;;;;;;5072521;28;20032;-79
2021/01/17 06:10:06;;;;;;;16.60;9.98;;;4.60;99.90;;;;;;5072608;28;20021;-79
2021/01/17 06:12:36;;;;;;;15.38;9.40;;;4.60;99.90;;;;;;5071611;28;20097;-79
2021/01/17 06:15:12;;;;;;;15.52;10.15;;;4.60;99.90;;;;;;5072563;28;20507;-80
2021/01/17 06:17:45;;;;;;;14.80;9.80;;;4.60;99.90;;;;;;5072765;28;20454;-78
2021/01/17 06:20:18;;;;;;;15.27;9.27;;;4.70;99.90;;;;;;5072543;28;20020;-79
2021/01/17 06:22:55;;;;;;;12.93;8.27;;;4.70;99.90;;;;;;5070274;28;20027;-79
2021/01/17 06:25:29;;;;;;;13.32;8.95;;;4.60;99.90;;;;;;5071997;28;20016;-77
2021/01/17 06:28:12;;;;;;;14.15;9.63;;;4.60;99.90;;;;;;5071286;28;20020;-78
2021/01/17 06:30:39;;;;;;;14.68;9.60;;;4.70;99.90;;;;;;5072230;28;20028;-79
2021/01/17 06:33:05;;;;;;;15.85;9.73;;;4.70;99.90;;;;;;5072261;28;20017;-80
2021/01/17 06:35:33;;;;;;;20.10;10.07;;;4.70;99.90;;;;;;5072627;28;20025;-79
2021/01/17 06:38:19;;;;;;;13.15;8.18;;;4.70;99.90;;;;;;5072457;28;20047;-78
2021/01/17 06:40:47;;;;;;;13.95;8.85;;;4.80;99.90;;;;;;5072223;28;20016;-79
2021/01/17 06:43:14;;;;;;;15.57;9.27;;;4.80;99.90;;;;;;5071492;28;20553;-79
2021/01/17 06:45:44;;;;;;;12.35;8.57;;;4.80;99.90;;;;;;5071119;28;20016;-79
2021/01/17 06:48:30;;;;;;;18.80;8.95;;;4.70;99.90;;;;;;5071528;28;20086;-79
2021/01/17 06:51:15;;;;;;;15.25;8.68;;;4.70;99.90;;;;;;5070128;28;20090;-79
2021/01/17 06:53:51;;;;;;;13.02;8.77;;;4.70;99.90;;;;;;5071035;28;20032;-78
2021/01/17 06:56:16;;;;;;;12.80;8.63;;;4.60;99.90;;;;;;5071874;28;20468;-79
2021/01/17 06:58:45;;;;;;;15.88;8.10;;;4.60;99.90;;;;;;5070879;28;20063;-79
2021/01/17 07:01:11;;;;;;;12.93;8.60;;;4.60;99.90;;;;;;5070634;28;20077;-79
2021/01/17 07:04:13;;;;;;;11.93;8.20;;;4.60;99.90;;;;;;5071940;28;20032;-79
2021/01/17 07:07:05;;;;;;;11.95;8.30;;;4.70;99.90;;;;;;5061836;28;20484;-80
2021/01/17 07:09:36;;;;;;;13.03;9.17;;;4.70;99.90;;;;;;5071339;28;20067;-79
2021/01/17 07:12:22;;;;;;;14.07;8.82;;;4.70;99.90;;;;;;5070055;28;20021;-80
2021/01/17 07:15:09;;;;;;;15.32;8.32;;;4.60;99.90;;;;;;5071891;28;20025;-79
2021/01/17 07:17:39;;;;;;;17.77;9.23;;;4.70;99.90;;;;;;5071236;28;20029;-80
2021/01/17 07:20:10;;;;;;;13.07;8.40;;;4.60;99.90;;;;;;5071438;28;20500;-78
2021/01/17 07:22:38;;;;;;;16.45;9.23;;;4.60;99.90;;;;;;5072855;28;20035;-79
2021/01/17 07:25:08;;;;;;;14.30;9.85;;;4.60;99.90;;;;;;5071968;28;20021;-78
2021/01/17 07:28:01;;;;;;;12.15;8.68;;;4.70;99.90;;;;;;5071834;28;20028;-78
2021/01/17 07:30:39;;;;;;;15.30;9.18;;;4.70;99.90;;;;;;5060121;28;20544;-79
2021/01/17 07:33:06;;;;;;;12.85;8.18;;;4.70;99.90;;;;;;5071844;28;20028;-79
2021/01/17 07:35:38;;;;;;;17.90;8.93;;;4.80;99.90;;;;;;5070106;28;20012;-79
2021/01/17 07:38:19;;;;;;;15.60;9.07;;;4.80;99.90;;;;;;5071282;28;20026;-78
2021/01/17 07:40:56;;;;;;;15.23;8.85;;;4.80;99.90;;;;;;5071339;28;20020;-79
2021/01/17 07:43:28;;;;;;;12.20;8.15;;;4.80;99.90;;;;;;5071181;28;20021;-79
2021/01/17 07:45:58;;;;;;;15.32;9.90;;;4.90;99.90;;;;;;5071870;28;20021;-80
2021/01/17 07:48:24;;;;;;;12.98;7.95;;;4.90;99.90;;;;;;5071184;28;20040;-80
2021/01/17 07:50:53;;;;;;;11.60;8.38;;;4.90;99.90;;;;;;5070698;28;20020;-78
2021/01/17 07:53:37;;;;;;;15.07;8.80;;;5.00;99.90;;;;;;5071544;28;20353;-77
2021/01/17 07:56:10;;;;;;;25.10;12.32;;;5.00;99.90;;;;;;5075337;28;20052;-79
2021/01/17 07:58:44;;;;;;;12.73;8.75;;;5.00;99.90;;;;;;5067072;28;20380;-78
2021/01/17 08:01:35;;;;;;;14.27;7.93;;;5.00;99.90;;;;;;5071244;28;20495;-79
2021/01/17 08:04:07;;;;;;;14.68;9.57;;;5.00;99.90;;;;;;5070650;28;20362;-79
2021/01/17 08:06:36;;;;;;;14.55;9.25;;;5.00;99.90;;;;;;5071113;28;20095;-78
2021/01/17 08:09:08;;;;;;;12.07;8.20;;;5.00;99.90;;;;;;5070963;28;20431;-80
2021/01/17 08:11:41;;;;;;;14.07;9.23;;;5.00;99.90;;;;;;5070391;28;20032;-79
2021/01/17 08:14:29;;;;;;;14.77;8.57;;;5.00;99.90;;;;;;5070968;28;20024;-79
2021/01/17 08:17:09;;;;;;;24.80;9.75;;;5.10;99.90;;;;;;5070349;28;20029;-79
2021/01/17 08:19:53;;;;;;;21.27;10.90;;;5.10;99.90;;;;;;5070715;28;20052;-79
2021/01/17 08:22:19;;;;;;;15.15;10.13;;;5.10;99.90;;;;;;5069262;28;20089;-80
2021/01/17 08:24:45;;;;;;;17.00;9.85;;;5.20;99.90;;;;;;5069410;28;20111;-79
2021/01/17 08:30:10;;;;;;;12.68;8.43;;;5.20;99.90;;;;;;5069434;28;20401;-79
2021/01/17 08:32:45;;;;;;;13.60;8.40;;;5.30;99.90;;;;;;5068762;28;20485;-79
2021/01/17 08:35:25;;;;;;;15.43;8.57;;;5.30;99.90;;;;;;5071472;28;20480;-79
2021/01/17 08:37:51;;;;;;;19.17;8.40;;;5.30;99.90;;;;;;5071193;28;20493;-77
2021/01/17 08:40:43;;;;;;;15.70;9.07;;;5.30;99.90;;;;;;5070920;28;20027;-79
2021/01/17 08:43:15;;;;;;;13.60;8.15;;;5.30;99.90;;;;;;5071137;28;20043;-79
2021/01/17 08:45:49;;;;;;;13.77;8.05;;;5.40;99.90;;;;;;5071563;28;20488;-80
2021/01/17 08:48:18;;;;;;;25.15;8.95;;;5.40;99.90;;;;;;5069519;28;20037;-79
2021/01/17 08:50:46;;;;;;;14.27;8.88;;;5.50;99.90;;;;;;5069777;28;20025;-79
2021/01/17 08:53:21;;;;;;;20.23;10.27;;;5.50;99.90;;;;;;5070812;28;20035;-79
2021/01/17 08:55:48;;;;;;;38.47;23.75;;;5.50;99.90;;;;;;5070753;28;20036;-79
2021/01/17 08:58:35;;;;;;;27.30;17.95;;;5.50;99.90;;;;;;5070762;28;20029;-79
2021/01/17 09:01:03;;;;;;;25.63;13.50;;;5.50;99.90;;;;;;5055214;28;20119;-79
2021/01/17 09:03:33;;;;;;;21.92;9.82;;;5.70;99.90;;;;;;5071784;28;20556;-78
2021/01/17 09:05:59;;;;;;;19.38;11.95;;;5.70;99.90;;;;;;5074806;28;20056;-79
2021/01/17 09:08:27;;;;;;;29.27;13.60;;;5.80;99.90;;;;;;5073094;28;20775;-79
2021/01/17 09:10:53;;;;;;;25.60;14.57;;;5.80;99.90;;;;;;5074042;28;20021;-79
2021/01/17 09:13:23;;;;;;;24.70;14.65;;;5.90;99.90;;;;;;5074236;28;20370;-79
2021/01/17 09:16:09;;;;;;;25.10;14.98;;;6.00;99.90;;;;;;5073716;28;20031;-78
2021/01/17 09:18:40;;;;;;;22.10;14.52;;;6.10;99.90;;;;;;5069901;28;20029;-79
2021/01/17 09:21:07;;;;;;;20.40;12.63;;;6.10;99.90;;;;;;5067769;28;20020;-78
2021/01/17 09:23:38;;;;;;;38.83;19.02;;;6.20;99.90;;;;;;5071398;28;20036;-77
2021/01/17 09:26:05;;;;;;;21.65;10.75;;;6.20;99.90;;;;;;5073168;28;20048;-79
2021/01/17 09:28:31;;;;;;;25.73;13.38;;;6.30;99.90;;;;;;5070615;28;20113;-78
2021/01/17 09:30:59;;;;;;;23.35;12.40;;;6.30;99.90;;;;;;5073772;28;20028;-79
2021/01/17 09:33:27;;;;;;;19.13;10.35;;;6.30;99.90;;;;;;5066071;28;20404;-80
2021/01/17 09:35:53;;;;;;;15.88;8.23;;;6.30;99.90;;;;;;5065750;28;20458;-79
2021/01/17 09:38:22;;;;;;;17.52;12.45;;;6.40;99.90;;;;;;5066945;28;21609;-80
2021/01/17 09:40:50;;;;;;;16.80;9.20;;;6.40;99.90;;;;;;5072182;28;20020;-80
2021/01/17 09:43:19;;;;;;;17.65;10.05;;;6.40;99.90;;;;;;5072089;28;20381;-80
2021/01/17 09:45:53;;;;;;;22.05;14.90;;;6.50;99.90;;;;;;5072658;28;20376;-81
2021/01/17 09:48:20;;;;;;;29.15;17.15;;;6.50;99.90;;;;;;5067657;28;20389;-80
2021/01/17 09:50:47;;;;;;;26.60;14.02;;;6.60;99.90;;;;;;5072483;28;20042;-80
2021/01/17 09:53:13;;;;;;;19.27;13.40;;;6.60;99.90;;;;;;5065413;28;20376;-79
2021/01/17 09:55:40;;;;;;;47.13;32.58;;;6.70;99.90;;;;;;5071651;28;20032;-80
2021/01/17 09:58:08;;;;;;;17.90;14.07;;;6.80;99.90;;;;;;5071815;28;20021;-79
2021/01/17 10:00:34;;;;;;;32.97;19.13;;;6.70;99.90;;;;;;5070998;28;20044;-78
2021/01/17 10:03:14;;;;;;;19.90;11.50;;;6.70;99.90;;;;;;5070828;28;20067;-78
2021/01/17 10:05:42;;;;;;;17.13;11.38;;;6.80;99.90;;;;;;5071685;28;20070;-78
2021/01/17 10:08:09;;;;;;;16.48;11.95;;;6.80;99.90;;;;;;5070994;28;20052;-77
2021/01/17 10:10:36;;;;;;;13.63;9.55;;;6.80;99.90;;;;;;5071693;28;20020;-79
2021/01/17 10:13:03;;;;;;;16.42;8.52;;;6.90;99.90;;;;;;5070580;28;20012;-78
2021/01/17 10:15:28;;;;;;;11.63;7.53;;;7.00;99.90;;;;;;5071998;28;20021;-78
2021/01/17 10:17:54;;;;;;;21.85;11.93;;;7.00;99.90;;;;;;5071995;28;20025;-78
2021/01/17 10:20:30;;;;;;;14.90;7.70;;;7.10;99.90;;;;;;5071626;28;20027;-78
2021/01/17 10:23:01;;;;;;;13.35;7.10;;;7.10;99.90;;;;;;5068914;28;20023;-79
2021/01/17 10:25:27;;;;;;;8.63;6.35;;;7.10;99.90;;;;;;5066578;28;20031;-77
2021/01/17 10:28:03;;;;;;;9.23;6.72;;;7.20;99.90;;;;;;5069379;28;20130;-78
2021/01/17 10:30:32;;;;;;;10.65;7.93;;;7.20;99.90;;;;;;5071030;28;20024;-77
2021/01/17 10:33:06;;;;;;;11.20;6.93;;;7.30;99.90;;;;;;5071286;28;20433;-79
2021/01/17 10:35:34;;;;;;;19.33;7.55;;;7.30;99.90;;;;;;5070789;28;20048;-78
2021/01/17 10:38:03;;;;;;;11.77;7.60;;;7.40;99.90;;;;;;5071857;28;20021;-79
2021/01/17 10:40:30;;;;;;;14.15;7.20;;;7.40;99.90;;;;;;5071652;28;20036;-78
2021/01/17 10:42:59;;;;;;;13.43;8.55;;;7.40;99.90;;;;;;5071988;28;20037;-78
2021/01/17 10:45:26;;;;;;;11.80;6.97;;;7.40;99.90;;;;;;5073538;28;20428;-78
2021/01/17 10:48:09;;;;;;;12.98;7.25;;;7.40;99.90;;;;;;5071254;28;20024;-77
2021/01/17 10:50:55;;;;;;;10.23;6.68;;;7.30;99.90;;;;;;5070923;28;20020;-78
2021/01/17 10:53:39;;;;;;;13.85;8.77;;;7.20;99.90;;;;;;5070334;28;20060;-77
2021/01/17 10:56:05;;;;;;;15.77;6.85;;;7.20;99.90;;;;;;5068348;28;20027;-78
2021/01/17 10:58:40;;;;;;;13.23;6.75;;;7.10;99.90;;;;;;5069871;28;20522;-77
2021/01/17 11:01:06;;;;;;;15.68;9.15;;;7.10;99.90;;;;;;5069604;28;20116;-78
2021/01/17 11:03:39;;;;;;;9.98;7.05;;;7.00;99.90;;;;;;5070337;28;20033;-78
2021/01/17 11:06:06;;;;;;;12.57;7.65;;;7.00;99.90;;;;;;5070844;28;20020;-78
2021/01/17 11:08:39;;;;;;;14.63;7.20;;;7.10;99.90;;;;;;5069102;28;20093;-78
2021/01/17 11:11:05;;;;;;;12.40;7.85;;;7.10;99.90;;;;;;5069927;28;20028;-77
2021/01/17 11:13:30;;;;;;;14.32;8.40;;;7.10;99.90;;;;;;5064298;28;20024;-76
2021/01/17 11:15:56;;;;;;;13.93;8.48;;;7.10;99.90;;;;;;5063516;28;20032;-75
2021/01/17 11:18:22;;;;;;;10.57;8.13;;;7.10;99.90;;;;;;5057528;28;20024;-76
2021/01/17 11:20:55;;;;;;;14.02;7.43;;;7.10;99.90;;;;;;5063324;28;20029;-75
2021/01/17 11:23:24;;;;;;;19.90;12.15;;;7.10;99.90;;;;;;5057701;28;20033;-75
2021/01/17 11:26:02;;;;;;;17.02;8.10;;;7.10;99.90;;;;;;5067955;28;20033;-76
2021/01/17 11:28:28;;;;;;;13.15;8.38;;;7.10;99.90;;;;;;5069064;28;20112;-76
2021/01/17 11:31:16;;;;;;;16.88;9.55;;;7.20;99.90;;;;;;5069514;28;20034;-75
2021/01/17 11:33:42;;;;;;;12.52;7.05;;;7.20;99.90;;;;;;5068262;28;20040;-75
2021/01/17 11:36:08;;;;;;;12.68;8.60;;;7.20;99.90;;;;;;5071138;28;20086;-74
2021/01/17 11:38:59;;;;;;;10.77;6.30;;;7.20;99.90;;;;;;5070834;28;20033;-74
2021/01/17 11:41:36;;;;;;;13.40;10.32;;;7.20;99.90;;;;;;5070913;28;20418;-76
2021/01/17 11:44:10;;;;;;;59.25;37.05;;;7.40;99.90;;;;;;5070940;28;20032;-75
2021/01/17 11:46:36;;;;;;;25.23;14.05;;;7.50;99.90;;;;;;5069647;28;20029;-77
2021/01/17 11:49:03;;;;;;;17.17;7.88;;;7.60;99.90;;;;;;5071116;28;20075;-76
2021/01/17 11:51:28;;;;;;;20.35;16.40;;;7.80;99.90;;;;;;5070717;28;20059;-75
2021/01/17 11:53:54;;;;;;;10.93;7.75;;;7.90;99.90;;;;;;5070741;28;20053;-76
2021/01/17 11:56:20;;;;;;;12.68;5.18;;;8.00;99.80;;;;;;5069968;28;20031;-76
2021/01/17 11:58:45;;;;;;;13.27;7.90;;;8.00;99.60;;;;;;5069543;28;20493;-74
2021/01/17 12:01:13;;;;;;;11.65;8.07;;;8.10;99.80;;;;;;5069311;28;20116;-76
2021/01/17 12:03:43;;;;;;;21.48;8.00;;;8.30;99.70;;;;;;5069996;28;20040;-76
2021/01/17 12:06:18;;;;;;;10.25;6.95;;;8.40;99.80;;;;;;5068767;28;20017;-76
2021/01/17 12:08:58;;;;;;;11.73;6.53;;;8.50;99.70;;;;;;5068905;28;20048;-76
2021/01/17 12:11:33;;;;;;;7.95;4.90;;;8.70;99.10;;;;;;5068040;28;20609;-76
2021/01/17 12:14:00;;;;;;;12.60;10.95;;;8.80;98.80;;;;;;5067475;28;20043;-76
2021/01/17 12:16:31;;;;;;;20.48;12.02;;;8.90;99.10;;;;;;5069515;28;20131;-76
2021/01/17 12:18:57;;;;;;;12.65;5.82;;;9.00;99.10;;;;;;5070367;28;20052;-75
2021/01/17 12:21:25;;;;;;;12.20;8.63;;;9.10;98.40;;;;;;5066968;28;20017;-76
2021/01/17 12:23:51;;;;;;;10.77;5.70;;;9.20;98.50;;;;;;5069928;28;20062;-76
2021/01/17 12:26:17;;;;;;;9.93;5.22;;;9.30;98.50;;;;;;5070118;28;20108;-75
2021/01/17 12:28:44;;;;;;;6.45;5.13;;;9.30;98.80;;;;;;5069503;28;20028;-74
2021/01/17 12:31:11;;;;;;;33.42;21.63;;;9.30;98.10;;;;;;5069303;28;20017;-75
2021/01/17 12:33:38;;;;;;;23.38;14.85;;;9.40;98.00;;;;;;5067016;28;20526;-75
2021/01/17 12:36:19;;;;;;;9.55;5.93;;;9.40;98.10;;;;;;5066983;28;20012;-74
2021/01/17 12:38:47;;;;;;;11.32;6.55;;;9.50;97.80;;;;;;5081226;28;20067;-75
2021/01/17 12:41:15;;;;;;;7.47;5.07;;;9.50;97.70;;;;;;5072976;28;20021;-75
2021/01/17 12:43:42;;;;;;;10.43;5.97;;;9.60;97.60;;;;;;5071417;28;20026;-75
2021/01/17 12:46:09;;;;;;;9.07;6.07;;;9.50;97.50;;;;;;5072835;28;20138;-76
2021/01/17 12:48:36;;;;;;;9.15;6.18;;;9.50;97.60;;;;;;5073527;28;20411;-75
2021/01/17 12:51:02;;;;;;;16.23;6.28;;;9.50;98.00;;;;;;5072693;28;20020;-75
2021/01/17 12:53:28;;;;;;;11.57;5.22;;;9.50;97.70;;;;;;5073059;28;20299;-74
2021/01/17 12:55:55;;;;;;;17.13;9.10;;;9.50;97.80;;;;;;5072848;28;20100;-75
2021/01/17 12:58:21;;;;;;;75.82;40.05;;;9.50;97.80;;;;;;5072253;28;20036;-75